createdAt,value
2023-02-18T00:03:25.481Z,62.90
2023-02-18T00:06:03.279Z,62.80
2023-02-18T00:08:33.805Z,62.90
2023-02-18T00:11:10.301Z,62.90
2023-02-18T00:13:37.813Z,62.90
2023-02-18T00:16:13.127Z,62.90
2023-02-18T00:18:41.059Z,62.90
2023-02-18T00:21:12.636Z,62.90
2023-02-18T00:23:45.137Z,63.50
2023-02-18T00:26:17.832Z,62.90
2023-02-18T00:28:51.794Z,62.90
2023-02-18T00:31:27.108Z,62.90
2023-02-18T00:33:58.137Z,62.90
2023-02-18T00:36:29.732Z,62.90
2023-02-18T00:39:03.711Z,63.50
2023-02-18T00:41:32.793Z,62.90
2023-02-18T00:44:04.574Z,62.90
2023-02-18T00:46:37.603Z,62.90
2023-02-18T00:49:06.641Z,62.90
2023-02-18T00:51:37.542Z,62.90
2023-02-18T00:54:07.959Z,62.90
2023-02-18T00:56:38.178Z,62.90
2023-02-18T00:59:10.482Z,62.90
2023-02-18T01:01:41.966Z,62.90
2023-02-18T01:04:11.468Z,62.90
2023-02-18T01:06:41.883Z,62.90
2023-02-18T01:09:12.962Z,62.90
2023-02-18T01:11:41.178Z,62.90
2023-02-18T01:14:13.188Z,62.90
2023-02-18T01:16:43.684Z,62.90
2023-02-18T01:19:15.936Z,62.90
2023-02-18T01:21:46.129Z,63.50
2023-02-18T01:24:17.878Z,62.90
2023-02-18T01:26:49.282Z,62.80
2023-02-18T01:29:18.825Z,62.90
2023-02-18T01:31:49.169Z,62.90
2023-02-18T01:34:19.047Z,62.80
2023-02-18T01:36:46.929Z,62.80
2023-02-18T01:39:17.603Z,62.80
2023-02-18T01:41:48.885Z,62.80
2023-02-18T01:44:27.515Z,62.90
2023-02-18T01:46:59.814Z,62.80
2023-02-18T01:49:38.344Z,62.90
2023-02-18T01:52:26.418Z,62.90
2023-02-18T01:55:00.244Z,62.80
2023-02-18T01:57:39.058Z,62.90
2023-02-18T02:00:17.112Z,62.90
2023-02-18T02:08:25.291Z,63.00
2023-02-18T02:11:25.242Z,62.90
2023-02-18T02:14:08.949Z,63.00
2023-02-18T02:17:05.318Z,62.90
2023-02-18T02:19:55.507Z,63.00
2023-02-18T02:26:17.732Z,62.90
2023-02-18T02:29:24.351Z,63.00
2023-02-18T02:32:20.281Z,63.00
2023-02-18T02:35:27.894Z,63.00
2023-02-18T02:38:25.733Z,63.00
2023-02-18T02:41:33.817Z,63.00
2023-02-18T02:44:36.928Z,63.00
2023-02-18T02:50:56.782Z,62.90
2023-02-18T02:53:41.547Z,62.90
2023-02-18T02:56:24.686Z,62.90
2023-02-18T02:59:07.927Z,63.00
2023-02-18T03:02:25.981Z,63.00
2023-02-18T03:05:31.979Z,62.90
2023-02-18T03:08:30.856Z,63.00
2023-02-18T03:13:59.739Z,63.00
2023-02-18T03:17:04.279Z,63.10
2023-02-18T03:19:58.253Z,63.00
2023-02-18T03:22:39.226Z,62.90
2023-02-18T03:25:08.734Z,63.00
2023-02-18T03:27:46.647Z,63.10
2023-02-18T03:30:24.421Z,63.00
2023-02-18T03:35:40.747Z,63.10
2023-02-18T03:38:51.401Z,62.90
2023-02-18T03:41:22.584Z,63.00
2023-02-18T03:44:00.022Z,62.90
2023-02-18T03:46:30.018Z,63.00
2023-02-18T03:49:01.814Z,63.00
2023-02-18T03:51:29.884Z,62.90
2023-02-18T03:54:00.010Z,63.00
2023-02-18T03:56:29.745Z,62.90
2023-02-18T03:58:58.788Z,63.00
2023-02-18T04:01:28.662Z,63.00
2023-02-18T04:03:58.570Z,62.90
2023-02-18T04:06:27.759Z,63.30
2023-02-18T04:08:57.681Z,62.90
2023-02-18T04:11:27.228Z,62.90
2023-02-18T04:13:57.541Z,62.90
2023-02-18T04:16:26.643Z,62.90
2023-02-18T04:18:57.421Z,62.90
2023-02-18T04:21:26.959Z,62.90
2023-02-18T04:23:57.999Z,63.00
2023-02-18T04:26:26.102Z,62.90
2023-02-18T04:28:55.259Z,62.90
2023-02-18T04:31:25.361Z,62.90
2023-02-18T04:33:56.035Z,62.90
2023-02-18T04:36:26.438Z,62.90
2023-02-18T04:38:54.483Z,62.90
2023-02-18T04:41:34.005Z,62.90
2023-02-18T04:44:04.660Z,62.90
2023-02-18T04:46:36.321Z,62.90
2023-02-18T04:49:06.163Z,63.00
2023-02-18T04:51:40.991Z,63.60
2023-02-18T04:54:17.656Z,62.90
2023-02-18T04:56:46.828Z,62.90
2023-02-18T04:59:18.730Z,63.00
2023-02-18T05:01:46.611Z,63.00
2023-02-18T05:04:16.852Z,62.90
2023-02-18T05:06:45.298Z,63.00
2023-02-18T05:09:16.162Z,63.00
2023-02-18T05:11:46.095Z,63.00
2023-02-18T05:17:02.432Z,63.00
2023-02-18T05:19:31.624Z,62.90
2023-02-18T05:22:08.854Z,63.00
2023-02-18T05:24:40.315Z,63.00
2023-02-18T05:27:12.043Z,63.00
2023-02-18T05:29:43.792Z,63.00
2023-02-18T05:32:14.566Z,63.00
2023-02-18T05:34:50.566Z,63.00
2023-02-18T05:37:23.096Z,63.00
2023-02-18T05:39:53.649Z,63.10
2023-02-18T05:42:26.773Z,63.10
2023-02-18T05:44:58.798Z,63.10
2023-02-18T05:47:30.725Z,63.10
2023-02-18T05:52:43.496Z,63.10
2023-02-18T05:55:15.267Z,63.00
2023-02-18T05:57:46.691Z,63.00
2023-02-18T06:00:20.548Z,63.00
2023-02-18T06:02:50.484Z,63.00
2023-02-18T06:05:21.987Z,62.90
2023-02-18T06:07:49.126Z,63.00
2023-02-18T06:10:19.842Z,62.90
2023-02-18T06:12:51.190Z,63.00
2023-02-18T06:15:20.406Z,63.60
2023-02-18T06:17:50.686Z,62.90
2023-02-18T06:20:24.497Z,63.00
2023-02-18T06:22:54.002Z,62.90
2023-02-18T06:25:24.909Z,62.90
2023-02-18T06:27:57.031Z,63.00
2023-02-18T06:30:27.458Z,63.00
2023-02-18T06:32:59.149Z,63.60
2023-02-18T06:35:30.298Z,63.00
2023-02-18T06:38:01.603Z,62.90
2023-02-18T06:40:36.274Z,62.90
2023-02-18T06:43:06.670Z,62.90
2023-02-18T06:45:35.842Z,62.90
2023-02-18T06:48:07.827Z,62.90
2023-02-18T06:50:39.138Z,63.00
2023-02-18T06:53:09.900Z,63.10
2023-02-18T06:55:40.729Z,63.10
2023-02-18T06:58:17.337Z,63.00
2023-02-18T07:00:47.814Z,63.00
2023-02-18T07:03:18.986Z,63.00
2023-02-18T07:05:49.529Z,63.70
2023-02-18T07:08:18.174Z,63.00
2023-02-18T07:10:50.482Z,63.00
2023-02-18T07:13:17.709Z,63.60
2023-02-18T07:15:46.573Z,62.90
2023-02-18T07:18:19.112Z,63.60
2023-02-18T07:20:50.217Z,63.00
2023-02-18T07:23:21.671Z,62.90
2023-02-18T07:25:52.457Z,62.80
2023-02-18T07:28:21.348Z,62.80
2023-02-18T07:30:49.700Z,62.90
2023-02-18T07:33:18.948Z,62.80
2023-02-18T07:35:52.860Z,62.90
2023-02-18T07:38:25.398Z,62.90
2023-02-18T07:40:57.694Z,62.80
2023-02-18T07:43:30.888Z,62.90
2023-02-18T07:46:00.739Z,62.80
2023-02-18T07:48:32.946Z,62.80
2023-02-18T07:51:03.216Z,62.80
2023-02-18T07:53:33.487Z,62.90
2023-02-18T07:56:04.732Z,62.90
2023-02-18T07:58:34.793Z,62.90
2023-02-18T08:01:09.892Z,62.90
2023-02-18T08:03:41.959Z,63.00
2023-02-18T08:06:29.471Z,62.90
2023-02-18T08:08:59.887Z,62.90
2023-02-18T08:11:31.847Z,62.90
2023-02-18T08:14:15.100Z,62.90
2023-02-18T08:16:46.262Z,62.90
2023-02-18T08:19:15.405Z,63.60
2023-02-18T08:21:46.321Z,62.90
2023-02-18T08:24:17.668Z,62.90
2023-02-18T08:26:59.911Z,63.20
2023-02-18T08:29:31.461Z,63.10
2023-02-18T08:32:02.991Z,63.80
2023-02-18T08:34:33.404Z,64.00
2023-02-18T08:37:08.306Z,64.10
2023-02-18T08:39:41.577Z,64.00
2023-02-18T08:42:12.074Z,64.10
2023-02-18T08:44:46.488Z,63.90
2023-02-18T08:48:16.646Z,63.90
2023-02-18T08:50:18.846Z,64.10
2023-02-18T08:52:51.231Z,64.30
2023-02-18T08:55:36.721Z,64.20
2023-02-18T08:58:09.928Z,63.90
2023-02-18T09:00:44.479Z,63.70
2023-02-18T09:03:18.728Z,63.80
2023-02-18T09:05:49.107Z,63.60
2023-02-18T09:08:22.011Z,63.50
2023-02-18T09:10:57.060Z,63.30
2023-02-18T09:13:24.602Z,63.10
2023-02-18T09:16:05.846Z,63.00
2023-02-18T09:18:41.209Z,63.00
2023-02-18T09:21:12.594Z,62.80
2023-02-18T09:23:41.619Z,62.80
2023-02-18T09:26:17.862Z,63.30
2023-02-18T09:28:51.610Z,62.70
2023-02-18T09:31:24.651Z,62.60
2023-02-18T09:34:00.528Z,62.60
2023-02-18T09:36:33.512Z,62.50
2023-02-18T09:39:05.405Z,62.40
2023-02-18T09:41:47.101Z,62.30
2023-02-18T09:44:32.738Z,62.30
2023-02-18T09:47:29.498Z,62.30
2023-02-18T09:53:11.147Z,62.60
2023-02-18T09:55:49.278Z,62.50
2023-02-18T09:58:24.075Z,62.40
2023-02-18T10:01:08.107Z,62.30
2023-02-18T10:03:38.242Z,62.30
2023-02-18T10:06:21.975Z,62.30
2023-02-18T10:08:55.191Z,62.20
2023-02-18T10:11:42.683Z,62.20
2023-02-18T10:14:17.659Z,62.10
2023-02-18T10:16:51.838Z,62.10
2023-02-18T10:19:28.516Z,62.20
2023-02-18T10:21:59.342Z,62.20
2023-02-18T10:24:46.969Z,62.20
2023-02-18T10:27:43.649Z,62.10
2023-02-18T10:30:45.778Z,62.00
2023-02-18T10:33:37.662Z,62.10
2023-02-18T10:36:28.917Z,62.10
2023-02-18T10:39:33.549Z,62.00
2023-02-18T10:42:33.200Z,62.20
2023-02-18T10:45:38.170Z,62.20
2023-02-18T10:48:53.457Z,62.10
2023-02-18T10:51:26.076Z,62.10
2023-02-18T10:53:57.738Z,62.00
2023-02-18T10:56:50.720Z,62.00
2023-02-18T10:59:32.559Z,61.90
2023-02-18T11:02:16.510Z,62.00
2023-02-18T11:04:49.410Z,62.10
2023-02-18T11:07:25.225Z,62.40
2023-02-18T11:12:56.908Z,62.80
2023-02-18T11:15:28.904Z,62.80
2023-02-18T11:18:14.507Z,62.90
2023-02-18T11:20:57.462Z,62.90
2023-02-18T11:23:28.079Z,63.00
2023-02-18T11:26:12.357Z,62.90
2023-02-18T11:28:52.343Z,62.90
2023-02-18T11:31:44.366Z,62.80
2023-02-18T11:34:25.699Z,61.70
2023-02-18T11:36:57.174Z,61.70
2023-02-18T11:39:28.693Z,61.70
2023-02-18T11:42:02.945Z,61.70
2023-02-18T11:44:58.100Z,61.70
2023-02-18T11:47:43.191Z,61.50
2023-02-18T11:50:31.846Z,61.60
2023-02-18T11:53:03.459Z,61.60
2023-02-18T11:55:33.314Z,61.60
2023-02-18T11:58:07.868Z,61.60
2023-02-18T12:00:46.393Z,61.60
2023-02-18T12:03:45.114Z,61.70
2023-02-18T12:06:26.551Z,61.80
2023-02-18T12:09:08.365Z,62.00
2023-02-18T12:11:49.068Z,62.00
2023-02-18T12:14:24.896Z,62.00
2023-02-18T12:17:13.972Z,62.20
2023-02-18T12:20:17.737Z,62.10
2023-02-18T12:23:24.574Z,62.00
2023-02-18T12:26:05.817Z,66.00
2023-02-18T12:29:06.268Z,62.10
2023-02-18T12:32:15.408Z,62.10
2023-02-18T12:35:16.902Z,62.10
2023-02-18T12:37:55.576Z,62.30
2023-02-18T12:40:38.216Z,62.20
2023-02-18T12:43:42.372Z,62.10
2023-02-18T12:46:54.352Z,62.00
2023-02-18T12:49:59.735Z,62.00
2023-02-18T12:53:07.234Z,62.10
2023-02-18T12:55:48.030Z,62.00
2023-02-18T12:58:36.759Z,62.30
2023-02-18T13:01:26.928Z,62.20
2023-02-18T13:04:20.091Z,62.00
2023-02-18T13:07:18.365Z,62.20
2023-02-18T13:10:18.192Z,62.20
2023-02-18T13:12:59.707Z,62.20
2023-02-18T13:16:06.886Z,62.80
2023-02-18T13:18:49.189Z,62.20
2023-02-18T13:21:20.594Z,62.20
2023-02-18T13:23:59.694Z,62.20
2023-02-18T13:26:36.983Z,62.30
2023-02-18T13:29:16.092Z,62.10
2023-02-18T13:32:41.309Z,62.30
2023-02-18T13:35:26.642Z,62.30
2023-02-18T13:38:13.130Z,62.40
2023-02-18T13:40:44.703Z,62.30
2023-02-18T13:43:37.229Z,62.30
2023-02-18T13:46:17.390Z,62.30
2023-02-18T13:49:01.319Z,62.20
2023-02-18T13:51:46.929Z,62.40
2023-02-18T13:54:20.940Z,62.30
2023-02-18T13:57:12.801Z,62.30
2023-02-18T13:59:47.903Z,62.30
2023-02-18T14:02:29.661Z,62.40
2023-02-18T14:05:24.207Z,62.30
2023-02-18T14:08:03.193Z,62.20
2023-02-18T14:10:40.703Z,62.20
2023-02-18T14:13:45.233Z,62.00
2023-02-18T14:16:16.956Z,62.00
2023-02-18T14:18:45.739Z,62.20
2023-02-18T14:21:14.901Z,62.20
2023-02-18T14:24:00.452Z,62.20
2023-02-18T14:26:47.407Z,62.30
2023-02-18T14:29:28.971Z,62.40
2023-02-18T14:32:03.799Z,62.30
2023-02-18T14:34:45.275Z,62.30
2023-02-18T14:37:53.363Z,62.30
2023-02-18T14:40:34.543Z,62.30
2023-02-18T14:43:23.114Z,62.50
2023-02-18T14:46:23.249Z,62.30
2023-02-18T14:49:31.599Z,62.40
2023-02-18T14:52:04.866Z,62.50
2023-02-18T14:54:39.290Z,63.20
2023-02-18T14:57:17.709Z,62.50
2023-02-18T14:59:50.669Z,62.50
2023-02-18T15:02:29.809Z,62.40
2023-02-18T15:05:29.140Z,62.40
2023-02-18T15:08:11.330Z,62.30
2023-02-18T15:11:05.816Z,62.30
2023-02-18T15:13:46.120Z,62.20
2023-02-18T15:16:33.068Z,62.30
2023-02-18T15:19:14.801Z,62.30
2023-02-18T15:22:04.556Z,62.20
2023-02-18T15:24:39.739Z,62.30
2023-02-18T15:27:30.587Z,62.20
2023-02-18T15:30:29.255Z,62.20
2023-02-18T15:33:02.273Z,62.10
2023-02-18T15:35:33.173Z,62.10
2023-02-18T15:38:04.220Z,62.30
2023-02-18T15:40:35.530Z,62.20
2023-02-18T15:43:06.477Z,62.30
2023-02-18T15:45:58.525Z,62.30
2023-02-18T15:48:57.221Z,62.40
2023-02-18T15:51:34.140Z,62.40
2023-02-18T15:54:05.544Z,62.30
2023-02-18T15:56:45.108Z,62.40
2023-02-18T15:59:44.326Z,62.40
2023-02-18T16:02:24.484Z,62.30
2023-02-18T16:05:05.622Z,62.50
2023-02-18T16:07:50.126Z,62.40
2023-02-18T16:10:39.192Z,62.40
2023-02-18T16:13:10.498Z,62.40
2023-02-18T16:15:52.716Z,62.40
2023-02-18T16:18:41.667Z,62.40
2023-02-18T16:21:40.364Z,62.40
2023-02-18T16:24:34.232Z,62.40
2023-02-18T16:27:06.687Z,62.40
2023-02-18T16:29:42.098Z,62.50
2023-02-18T16:32:12.678Z,62.50
2023-02-18T16:34:46.340Z,62.50
2023-02-18T16:37:37.504Z,62.50
2023-02-18T16:40:49.617Z,63.30
2023-02-18T16:43:37.883Z,64.30
2023-02-18T16:46:23.444Z,64.60
2023-02-18T16:48:58.541Z,64.70
2023-02-18T16:51:37.564Z,64.30
2023-02-18T16:54:12.173Z,64.40
2023-02-18T16:56:41.053Z,64.40
2023-02-18T16:59:12.873Z,64.00
2023-02-18T17:01:45.336Z,64.10
2023-02-18T17:04:23.186Z,63.60
2023-02-18T17:06:52.558Z,63.10
2023-02-18T17:09:28.243Z,62.00
2023-02-18T17:12:02.493Z,61.40
2023-02-18T17:14:32.995Z,61.30
2023-02-18T17:17:01.739Z,61.10
2023-02-18T17:19:32.998Z,61.10
2023-02-18T17:22:02.156Z,60.90
2023-02-18T17:24:32.583Z,61.10
2023-02-18T17:27:02.170Z,61.10
2023-02-18T17:29:33.572Z,61.10
2023-02-18T17:32:05.109Z,61.10
2023-02-18T17:34:38.523Z,61.10
2023-02-18T17:37:20.025Z,61.10
2023-02-18T17:39:46.763Z,61.20
2023-02-18T17:42:19.799Z,61.10
2023-02-18T17:44:53.466Z,61.10
2023-02-18T17:47:26.856Z,61.20
2023-02-18T17:49:57.190Z,61.30
2023-02-18T17:52:31.539Z,61.40
2023-02-18T17:54:59.951Z,61.40
2023-02-18T17:57:31.727Z,61.50
2023-02-18T18:00:01.841Z,61.50
2023-02-18T18:02:34.108Z,61.50
2023-02-18T18:05:05.384Z,61.40
2023-02-18T18:07:35.018Z,61.40
2023-02-18T18:10:04.722Z,61.50
2023-02-18T18:12:35.177Z,61.50
2023-02-18T18:15:10.711Z,61.50
2023-02-18T18:17:41.146Z,61.60
2023-02-18T18:20:11.651Z,61.50
2023-02-18T18:22:42.184Z,61.70
2023-02-18T18:25:26.756Z,61.70
2023-02-18T18:27:57.454Z,61.70
2023-02-18T18:30:33.928Z,61.80
2023-02-18T18:33:19.859Z,61.90
2023-02-18T18:35:55.062Z,62.00
2023-02-18T18:38:26.868Z,62.10
2023-02-18T18:40:55.931Z,62.10
2023-02-18T18:43:35.003Z,62.30
2023-02-18T18:46:04.850Z,62.30
2023-02-18T18:48:34.914Z,62.50
2023-02-18T18:51:09.201Z,62.30
2023-02-18T18:53:39.233Z,62.30
2023-02-18T18:56:11.967Z,62.50
2023-02-18T18:58:44.404Z,62.60
2023-02-18T19:01:26.811Z,62.50
2023-02-18T19:03:59.040Z,62.50
2023-02-18T19:06:27.270Z,62.50
2023-02-18T19:08:57.719Z,62.50
2023-02-18T19:11:26.885Z,62.50
2023-02-18T19:13:58.415Z,62.60
2023-02-18T19:19:27.083Z,62.60
2023-02-18T19:21:59.289Z,62.60
2023-02-18T19:24:27.802Z,62.60
2023-02-18T19:26:59.528Z,62.60
2023-02-18T19:29:30.130Z,62.60
2023-02-18T19:32:01.799Z,62.70
2023-02-18T19:34:32.163Z,62.70
2023-02-18T19:37:01.636Z,62.60
2023-02-18T19:39:31.755Z,62.60
2023-02-18T19:42:05.434Z,62.60
2023-02-18T19:44:37.303Z,62.70
2023-02-18T19:47:07.379Z,62.70
2023-02-18T19:49:35.488Z,62.70
2023-02-18T19:52:07.248Z,62.70
2023-02-18T19:54:37.868Z,62.70
2023-02-18T19:57:10.642Z,62.70
2023-02-18T19:59:41.070Z,62.80
2023-02-18T20:02:20.862Z,62.70
2023-02-18T20:04:48.504Z,62.80
2023-02-18T20:07:21.311Z,62.80
2023-02-18T20:09:57.508Z,62.80
2023-02-18T20:12:30.231Z,62.80
2023-02-18T20:15:04.487Z,62.80
2023-02-18T20:17:34.330Z,62.60
2023-02-18T20:20:04.787Z,62.70
2023-02-18T20:25:19.200Z,62.70
2023-02-18T20:28:00.328Z,62.70
2023-02-18T20:30:33.166Z,62.80
2023-02-18T20:33:03.009Z,62.70
2023-02-18T20:35:35.277Z,62.70
2023-02-18T20:38:06.490Z,62.70
2023-02-18T20:40:38.133Z,62.70
2023-02-18T20:43:08.482Z,62.70
2023-02-18T20:45:36.903Z,62.70
2023-02-18T20:48:08.222Z,62.70
2023-02-18T20:50:40.112Z,62.70
2023-02-18T20:53:10.292Z,62.70
2023-02-18T20:55:41.174Z,62.70
2023-02-18T20:58:10.143Z,62.80
2023-02-18T21:00:39.461Z,62.70
2023-02-18T21:03:07.357Z,62.50
2023-02-18T21:05:38.530Z,62.70
2023-02-18T21:08:13.098Z,63.20
2023-02-18T21:10:45.067Z,64.30
2023-02-18T21:13:17.370Z,65.50
2023-02-18T21:15:49.561Z,66.00
2023-02-18T21:18:23.483Z,66.50
2023-02-18T21:20:55.539Z,66.60
2023-02-18T21:23:26.931Z,67.00
2023-02-18T21:26:02.980Z,67.10
2023-02-18T21:28:32.507Z,67.40
2023-02-18T21:31:03.190Z,67.40
2023-02-18T21:33:31.534Z,67.70
2023-02-18T21:36:15.701Z,67.70
2023-02-18T21:38:45.827Z,67.80
2023-02-18T21:41:15.332Z,67.70
2023-02-18T21:43:49.445Z,68.10
2023-02-18T21:46:28.556Z,68.00
2023-02-18T21:49:20.891Z,69.00
2023-02-18T21:52:02.228Z,68.80
2023-02-18T21:54:39.443Z,68.40
2023-02-18T21:57:15.122Z,68.50
2023-02-18T21:59:48.828Z,69.30
2023-02-18T22:02:36.492Z,68.50
2023-02-18T22:05:10.876Z,68.80
2023-02-18T22:07:39.695Z,69.20
2023-02-18T22:10:10.147Z,69.00
2023-02-18T22:12:40.267Z,69.20
2023-02-18T22:15:12.817Z,69.30
2023-02-18T22:17:44.350Z,69.10
2023-02-18T22:20:15.649Z,69.60
2023-02-18T22:22:47.591Z,69.60
2023-02-18T22:25:17.962Z,69.40
2023-02-18T22:27:57.832Z,69.30
2023-02-18T22:30:27.654Z,69.50
2023-02-18T22:32:55.763Z,69.60
2023-02-18T22:35:27.128Z,69.10
2023-02-18T22:37:58.092Z,69.80
2023-02-18T22:40:29.979Z,69.70
2023-02-18T22:43:01.210Z,69.80
2023-02-18T22:45:31.657Z,69.90
2023-02-18T22:48:05.135Z,69.60
2023-02-18T22:50:37.983Z,69.50
2023-02-18T22:53:11.392Z,69.70
2023-02-18T22:55:41.391Z,70.10
2023-02-18T22:58:13.778Z,69.80
2023-02-18T23:00:45.430Z,70.10
2023-02-18T23:03:20.157Z,69.90
2023-02-18T23:05:50.755Z,70.10
2023-02-18T23:08:20.736Z,69.90
2023-02-18T23:10:47.701Z,70.00
2023-02-18T23:13:23.112Z,69.80
2023-02-18T23:16:08.937Z,70.20
2023-02-18T23:18:37.510Z,69.80
2023-02-18T23:21:19.870Z,70.20
2023-02-18T23:23:55.786Z,70.00
2023-02-18T23:26:32.060Z,69.80
2023-02-18T23:29:03.083Z,69.90
2023-02-18T23:31:30.076Z,69.90
2023-02-18T23:34:00.346Z,70.60
2023-02-18T23:36:37.221Z,70.10
2023-02-18T23:41:55.167Z,70.30
2023-02-18T23:44:29.055Z,70.10
2023-02-18T23:46:59.388Z,70.30
2023-02-18T23:49:29.156Z,70.10
2023-02-18T23:52:00.622Z,70.10
2023-02-18T23:54:31.857Z,70.10
2023-02-18T23:57:03.818Z,70.20
2023-02-18T23:59:34.633Z,70.20
